Time;durP1;ratioP1;P1;durP2;ratioP2;P2;SDS_P1;SDS_P2;PMS_P1;PMS_P2;Temp;Humidity;BMP_temperature;BMP_pressure;BME280_temperature;BME280_humidity;BME280_pressure;Samples;Min_cycle;Max_cycle;Signal;HPM_P1;HPM_P2
2021/10/06 00:00:39;;;;;;;9.60;5.70;;;;;;;17.33;46.26;98277.41;4952806;29;20026;-69
2021/10/06 00:03:04;;;;;;;10.55;5.55;;;;;;;17.33;46.15;98278.25;4952694;29;20023;-70
2021/10/06 00:05:29;;;;;;;8.38;6.10;;;;;;;17.32;46.58;98286.91;4952592;29;20110;-69
2021/10/06 00:07:55;;;;;;;8.70;5.70;;;;;;;17.32;46.13;98292.47;4953261;29;20078;-69
2021/10/06 00:10:20;;;;;;;10.90;6.43;;;;;;;17.30;46.36;98281.72;4952454;29;20139;-68
2021/10/06 00:12:46;;;;;;;10.45;5.97;;;;;;;17.30;46.36;98283.69;4953142;29;20472;-68
2021/10/06 00:15:12;;;;;;;9.63;5.63;;;;;;;17.25;46.34;98284.69;4952855;29;20059;-69
2021/10/06 00:17:39;;;;;;;9.35;5.95;;;;;;;17.18;46.64;98292.78;4952920;29;20023;-69
2021/10/06 00:20:06;;;;;;;11.30;5.13;;;;;;;17.08;46.52;98302.34;4951382;28;20041;-70
2021/10/06 00:22:32;;;;;;;8.82;5.70;;;;;;;16.89;47.17;98292.59;4952551;29;20023;-70
2021/10/06 00:24:57;;;;;;;9.20;5.85;;;;;;;16.78;47.38;98296.94;4952311;29;20381;-70
2021/10/06 00:27:23;;;;;;;10.43;6.45;;;;;;;16.72;47.31;98285.25;4952793;29;20059;-70
2021/10/06 00:29:49;;;;;;;9.82;6.68;;;;;;;16.67;47.26;98285.50;4952530;29;20023;-69
2021/10/06 00:32:14;;;;;;;12.77;6.57;;;;;;;16.64;47.55;98286.97;4952884;29;20484;-69
2021/10/06 00:34:40;;;;;;;14.48;6.60;;;;;;;16.59;48.00;98289.94;4952108;29;20114;-69
2021/10/06 00:37:05;;;;;;;10.27;7.38;;;;;;;16.55;48.17;98290.97;4952351;29;20443;-69
2021/10/06 00:39:31;;;;;;;13.25;7.18;;;;;;;16.50;47.83;98287.28;4952426;29;20051;-69
2021/10/06 00:41:56;;;;;;;12.57;8.07;;;;;;;16.46;48.25;98293.84;4952335;29;20050;-70
2021/10/06 00:44:22;;;;;;;16.08;8.43;;;;;;;16.40;48.21;98287.69;4952057;29;20066;-69
2021/10/06 00:46:48;;;;;;;16.65;8.98;;;;;;;16.38;48.48;98292.75;4952383;29;20110;-70
2021/10/06 00:49:14;;;;;;;14.00;7.95;;;;;;;16.35;48.43;98282.34;4952118;29;20043;-69
2021/10/06 00:51:41;;;;;;;17.15;8.35;;;;;;;16.31;48.61;98290.53;4951727;29;20034;-69
2021/10/06 00:54:07;;;;;;;13.13;7.30;;;;;;;16.32;48.96;98294.09;4951882;29;20385;-70
2021/10/06 00:56:33;;;;;;;12.50;6.90;;;;;;;16.32;48.90;98283.84;4951978;29;20039;-70
2021/10/06 00:58:59;;;;;;;12.05;7.13;;;;;;;16.32;49.03;98289.38;4952014;29;20103;-69
2021/10/06 01:01:24;;;;;;;12.70;6.95;;;;;;;16.33;49.13;98290.19;4951657;29;20878;-68
2021/10/06 01:03:50;;;;;;;9.82;5.82;;;;;;;16.34;48.85;98302.88;4952064;29;20038;-70
2021/10/06 01:06:15;;;;;;;11.27;5.90;;;;;;;16.34;48.82;98300.94;4951118;29;20031;-69
2021/10/06 01:08:41;;;;;;;9.57;5.22;;;;;;;16.36;48.90;98306.09;4931404;29;20047;-70
2021/10/06 01:11:10;;;;;;;9.20;5.45;;;;;;;16.38;48.78;98298.28;4932330;29;20027;-70
2021/10/06 01:13:36;;;;;;;8.05;5.50;;;;;;;16.41;49.17;98296.81;4932056;29;20024;-70
2021/10/06 01:16:03;;;;;;;8.13;5.22;;;;;;;16.44;48.64;98294.16;4932429;29;20079;-70
2021/10/06 01:18:28;;;;;;;8.68;5.22;;;;;;;16.46;49.01;98289.09;4931710;29;20036;-70
2021/10/06 01:20:54;;;;;;;9.02;5.57;;;;;;;16.48;48.89;98288.78;4932357;29;20396;-70
2021/10/06 01:23:19;;;;;;;8.32;5.28;;;;;;;16.49;48.76;98298.69;4931185;29;20032;-70
2021/10/06 01:25:45;;;;;;;8.65;5.20;;;;;;;16.51;49.30;98294.44;4931806;29;20028;-70
2021/10/06 01:28:11;;;;;;;11.77;5.30;;;;;;;16.54;48.57;98295.69;4930758;29;20032;-70
2021/10/06 01:30:37;;;;;;;8.27;5.53;;;;;;;16.56;48.86;98295.38;4931262;29;20472;-70
2021/10/06 01:33:02;;;;;;;10.82;5.50;;;;;;;16.59;48.83;98309.31;4931927;29;20556;-70
2021/10/06 01:35:28;;;;;;;9.30;5.00;;;;;;;16.61;48.80;98307.03;4931300;29;20039;-70
2021/10/06 01:37:53;;;;;;;8.73;5.63;;;;;;;16.65;49.11;98299.66;4932118;29;20032;-69
2021/10/06 01:40:22;;;;;;;8.65;5.10;;;;;;;16.66;48.81;98295.75;4931966;29;20035;-68
2021/10/06 01:42:49;;;;;;;11.27;5.30;;;;;;;16.70;48.82;98289.53;4930386;29;20106;-69
2021/10/06 01:45:22;;;;;;;8.55;5.07;;;;;;;16.74;48.58;98284.94;4931549;29;20384;-69
2021/10/06 01:47:48;;;;;;;10.57;5.10;;;;;;;16.77;48.75;98284.25;4929797;29;20031;-69
2021/10/06 01:50:25;;;;;;;10.32;5.80;;;;;;;16.81;48.34;98285.19;4931928;29;20138;-69
2021/10/06 01:52:51;;;;;;;9.48;5.75;;;;;;;16.87;48.21;98280.22;4928700;29;20051;-69
2021/10/06 01:55:23;;;;;;;10.73;6.10;;;;;;;16.93;48.21;98290.72;4931679;29;20055;-68
2021/10/06 01:57:49;;;;;;;8.00;5.47;;;;;;;17.00;48.07;98294.94;4930559;29;20035;-69
2021/10/06 02:00:15;;;;;;;7.90;5.43;;;;;;;17.06;47.43;98286.09;4932180;29;20392;-69
2021/10/06 02:02:40;;;;;;;12.93;5.40;;;;;;;17.13;47.08;98293.81;4931513;29;20039;-70
2021/10/06 02:05:06;;;;;;;8.18;5.57;;;;;;;17.19;47.21;98273.03;4930179;29;20028;-70
2021/10/06 02:07:31;;;;;;;11.40;6.00;;;;;;;17.25;47.03;98271.66;4931624;29;20039;-70
2021/10/06 02:09:58;;;;;;;8.45;5.07;;;;;;;17.28;46.26;98272.13;4946549;29;20058;-70
2021/10/06 02:12:24;;;;;;;10.73;5.78;;;;;;;17.31;46.63;98265.91;4951603;29;20042;-70
2021/10/06 02:14:49;;;;;;;9.18;5.32;;;;;;;17.37;46.39;98267.25;4951758;29;20031;-67
2021/10/06 02:17:14;;;;;;;8.05;5.57;;;;;;;17.38;46.31;98279.97;4952276;29;20024;-67
2021/10/06 02:19:40;;;;;;;10.43;5.68;;;;;;;17.41;46.26;98291.19;4951513;29;20035;-67
2021/10/06 02:22:05;;;;;;;16.02;5.45;;;;;;;17.45;46.12;98287.72;4951988;29;20041;-68
2021/10/06 02:24:31;;;;;;;9.00;5.28;;;;;;;17.47;46.21;98290.97;4951663;29;20145;-67
2021/10/06 02:26:56;;;;;;;14.50;5.40;;;;;;;17.48;45.92;98290.59;4935163;29;20027;-68
2021/10/06 02:29:22;;;;;;;8.82;5.32;;;;;;;17.49;45.68;98288.66;4951903;29;20058;-70
2021/10/06 02:31:47;;;;;;;10.38;5.15;;;;;;;17.51;45.89;98292.69;4948885;29;20539;-70
2021/10/06 02:34:12;;;;;;;11.40;5.53;;;;;;;17.53;45.99;98287.59;4930806;29;20384;-70
2021/10/06 02:36:38;;;;;;;8.43;5.40;;;;;;;17.55;46.07;98285.28;4951300;29;20079;-70
2021/10/06 02:39:04;;;;;;;9.80;5.43;;;;;;;17.56;45.57;98284.13;4950704;29;20027;-69
2021/10/06 02:41:29;;;;;;;10.60;5.68;;;;;;;17.56;45.60;98289.69;4951552;29;20461;-70
2021/10/06 02:43:55;;;;;;;8.55;5.32;;;;;;;17.59;45.44;98293.72;4950969;28;20070;-70
2021/10/06 02:46:20;;;;;;;10.18;5.60;;;;;;;17.60;45.40;98300.88;4950938;29;20419;-70
2021/10/06 02:48:45;;;;;;;8.57;5.38;;;;;;;17.63;45.80;98307.72;4951637;29;20391;-70
2021/10/06 02:51:12;;;;;;;8.70;5.82;;;;;;;17.65;45.62;98310.94;4934016;29;20046;-70
2021/10/06 02:53:37;;;;;;;9.55;5.60;;;;;;;17.66;45.48;98312.56;4934142;29;20528;-70
2021/10/06 02:56:03;;;;;;;14.20;5.70;;;;;;;17.66;45.77;98315.34;4951140;29;20070;-70
2021/10/06 02:58:29;;;;;;;8.70;5.60;;;;;;;17.65;45.56;98311.75;4951501;29;20134;-70
2021/10/06 03:00:54;;;;;;;12.45;5.80;;;;;;;17.64;45.51;98309.31;4934270;29;20471;-70
2021/10/06 03:03:20;;;;;;;9.05;5.07;;;;;;;17.64;45.59;98312.09;4951101;29;20043;-70
2021/10/06 03:05:45;;;;;;;9.35;5.45;;;;;;;17.64;45.62;98317.66;4951271;29;20035;-70
2021/10/06 03:08:11;;;;;;;9.95;5.68;;;;;;;17.64;45.57;98317.66;4951238;29;20023;-71
2021/10/06 03:10:36;;;;;;;11.32;5.35;;;;;;;17.62;45.90;98311.63;4951317;29;20587;-69
2021/10/06 03:13:02;;;;;;;8.90;5.30;;;;;;;17.60;46.04;98313.94;4951177;29;20078;-71
2021/10/06 03:15:27;;;;;;;8.35;5.45;;;;;;;17.59;45.91;98313.13;4950741;29;20023;-71
2021/10/06 03:17:53;;;;;;;12.20;5.35;;;;;;;17.58;46.10;98311.50;4933995;29;20024;-70
2021/10/06 03:20:18;;;;;;;9.82;5.03;;;;;;;17.57;46.12;98315.44;4951334;29;20023;-70
2021/10/06 03:22:44;;;;;;;10.15;5.43;;;;;;;17.54;46.16;98319.72;4948921;29;20345;-70
2021/10/06 03:25:10;;;;;;;9.77;5.10;;;;;;;17.52;46.14;98322.03;4933804;29;20037;-70
2021/10/06 03:27:35;;;;;;;7.68;5.32;;;;;;;17.52;46.23;98329.56;4951460;29;20488;-69
2021/10/06 03:30:01;;;;;;;9.95;5.70;;;;;;;17.50;46.57;98329.09;4950984;29;20106;-70
2021/10/06 03:32:27;;;;;;;8.50;5.97;;;;;;;17.46;46.44;98322.63;4950731;29;20023;-70
2021/10/06 03:34:52;;;;;;;8.23;5.43;;;;;;;17.43;46.79;98335.19;4951173;29;20348;-70
2021/10/06 03:37:19;;;;;;;10.35;5.63;;;;;;;17.38;46.85;98340.94;4951566;29;20028;-70
2021/10/06 03:39:44;;;;;;;10.23;5.03;;;;;;;17.33;47.13;98339.22;4951196;29;20026;-69
2021/10/06 03:42:10;;;;;;;9.68;5.85;;;;;;;17.32;47.67;98347.91;4934022;29;20027;-70
2021/10/06 03:44:35;;;;;;;8.75;4.90;;;;;;;17.30;47.75;98352.97;4933680;29;20015;-70
2021/10/06 03:47:01;;;;;;;9.27;5.45;;;;;;;17.26;48.29;98352.84;4950941;29;20028;-70
2021/10/06 03:49:26;;;;;;;7.80;5.30;;;;;;;17.23;48.54;98359.06;4951145;29;20031;-69
2021/10/06 03:51:51;;;;;;;8.52;5.53;;;;;;;17.19;48.68;98349.81;4944249;29;20621;-70
2021/10/06 03:54:17;;;;;;;8.50;5.43;;;;;;;17.17;49.04;98354.88;4933435;29;20031;-69
2021/10/06 03:56:42;;;;;;;10.95;5.03;;;;;;;17.16;48.94;98354.09;4954177;29;20034;-70
2021/10/06 03:59:08;;;;;;;10.93;5.65;;;;;;;17.17;49.95;98360.44;4957545;29;20074;-70
2021/10/06 04:01:33;;;;;;;9.15;5.80;;;;;;;17.16;49.73;98361.59;4954779;29;20095;-70
2021/10/06 04:03:59;;;;;;;10.23;5.80;;;;;;;17.15;49.52;98365.50;4954486;29;20112;-70
2021/10/06 04:06:25;;;;;;;9.40;5.78;;;;;;;17.12;49.72;98361.47;4954648;29;20047;-69
2021/10/06 04:08:52;;;;;;;10.93;6.22;;;;;;;17.09;49.79;98374.06;4954664;29;20511;-70
2021/10/06 04:11:18;;;;;;;11.05;5.75;;;;;;;17.07;50.00;98370.81;4954519;29;20484;-69
2021/10/06 04:13:43;;;;;;;10.05;5.70;;;;;;;17.05;49.97;98369.53;4954115;29;20030;-69
2021/10/06 04:16:08;;;;;;;7.95;6.00;;;;;;;17.02;50.04;98376.56;4954083;29;20107;-69
2021/10/06 04:18:34;;;;;;;15.77;6.20;;;;;;;16.99;50.42;98371.72;4954021;29;20025;-70
2021/10/06 04:20:59;;;;;;;11.68;5.97;;;;;;;16.96;50.12;98375.16;4954122;29;20019;-70
2021/10/06 04:23:25;;;;;;;10.27;6.28;;;;;;;16.91;50.36;98383.66;4935762;29;20019;-70
2021/10/06 04:25:50;;;;;;;9.32;5.75;;;;;;;16.88;50.27;98381.56;4953982;29;20046;-70
2021/10/06 04:28:16;;;;;;;12.55;6.38;;;;;;;16.85;50.70;98385.00;4953701;29;20028;-70
2021/10/06 04:30:42;;;;;;;9.80;6.05;;;;;;;16.78;50.92;98386.34;4953527;29;20031;-69
2021/10/06 04:33:07;;;;;;;8.30;5.40;;;;;;;16.73;51.74;98386.56;4953183;29;20031;-69
2021/10/06 04:35:33;;;;;;;8.07;5.63;;;;;;;16.70;51.17;98390.03;4936170;29;20043;-69
2021/10/06 04:37:58;;;;;;;9.15;5.90;;;;;;;16.69;51.48;98395.91;4953742;29;20023;-69
2021/10/06 04:40:24;;;;;;;8.73;5.50;;;;;;;16.66;51.46;98389.09;4935252;29;20026;-70
2021/10/06 04:42:50;;;;;;;7.28;5.90;;;;;;;16.63;51.63;98396.09;4951965;29;20034;-69
2021/10/06 04:45:16;;;;;;;10.18;6.50;;;;;;;16.60;51.97;98393.22;4951535;29;20031;-69
2021/10/06 04:47:41;;;;;;;10.63;6.07;;;;;;;16.57;52.15;98396.66;4951747;29;20034;-70
2021/10/06 04:50:08;;;;;;;9.82;6.07;;;;;;;16.52;52.18;98408.72;4951709;29;20041;-70
2021/10/06 04:52:34;;;;;;;10.65;6.53;;;;;;;16.50;52.42;98408.28;4951781;29;20027;-69
2021/10/06 04:55:00;;;;;;;10.95;5.80;;;;;;;16.47;52.30;98412.50;4951023;29;20498;-70
2021/10/06 04:57:25;;;;;;;9.10;5.72;;;;;;;16.47;52.55;98414.47;4951791;29;20039;-70
2021/10/06 04:59:51;;;;;;;8.93;5.60;;;;;;;16.44;53.13;98415.16;4951828;29;20035;-70
2021/10/06 05:02:16;;;;;;;8.93;5.20;;;;;;;16.41;53.14;98419.38;4934384;29;20023;-70
2021/10/06 05:04:42;;;;;;;9.63;6.10;;;;;;;16.37;52.80;98412.91;4950860;29;20026;-69
2021/10/06 05:07:07;;;;;;;10.98;6.05;;;;;;;16.35;53.62;98412.44;4950988;28;20027;-69
2021/10/06 05:09:33;;;;;;;9.60;6.05;;;;;;;16.35;53.28;98420.72;4951488;29;20086;-69
2021/10/06 05:11:59;;;;;;;9.32;6.15;;;;;;;16.35;53.77;98435.38;4951319;29;20640;-70
2021/10/06 05:14:24;;;;;;;7.38;5.55;;;;;;;16.34;53.60;98422.69;4950078;29;20027;-69
2021/10/06 05:16:52;;;;;;;7.80;5.43;;;;;;;16.32;53.40;98426.94;4951530;29;20027;-70
2021/10/06 05:19:19;;;;;;;9.32;5.88;;;;;;;16.33;53.47;98431.31;4953073;29;20036;-69
2021/10/06 05:21:44;;;;;;;8.80;5.60;;;;;;;16.31;53.47;98420.59;4953002;29;20456;-70
2021/10/06 05:24:10;;;;;;;10.30;5.97;;;;;;;16.31;53.92;98431.66;4951185;29;20058;-73
2021/10/06 05:26:36;;;;;;;9.10;5.78;;;;;;;16.33;54.28;98442.38;4951686;29;20082;-74
2021/10/06 05:29:01;;;;;;;7.03;5.53;;;;;;;16.32;54.66;98446.31;4952735;29;20035;-73
2021/10/06 05:31:27;;;;;;;8.77;5.95;;;;;;;16.30;54.12;98438.34;4952970;29;20023;-73
2021/10/06 05:33:52;;;;;;;12.85;6.13;;;;;;;16.32;54.13;98446.31;4951890;29;20118;-73
2021/10/06 05:36:19;;;;;;;10.68;6.47;;;;;;;16.33;54.67;98442.38;4952174;29;20035;-73
2021/10/06 05:38:45;;;;;;;11.32;5.97;;;;;;;16.33;54.73;98448.75;4952623;29;20036;-72
2021/10/06 05:41:10;;;;;;;7.93;5.65;;;;;;;16.32;54.55;98449.06;4953008;29;20502;-73
2021/10/06 05:43:35;;;;;;;7.95;5.50;;;;;;;16.33;54.88;98459.81;4952632;29;20035;-73
2021/10/06 05:46:01;;;;;;;10.35;5.80;;;;;;;16.36;54.54;98459.16;4952224;29;20098;-73
2021/10/06 05:48:27;;;;;;;9.18;5.95;;;;;;;16.37;54.97;98452.47;4952389;29;20023;-74
2021/10/06 05:50:52;;;;;;;8.15;5.75;;;;;;;16.37;54.80;98458.00;4952740;29;20450;-73
2021/10/06 05:53:18;;;;;;;8.82;5.38;;;;;;;16.40;54.99;98458.50;4952283;29;20031;-74
2021/10/06 05:55:44;;;;;;;9.63;5.60;;;;;;;16.38;55.17;98458.81;4952273;29;20019;-73
2021/10/06 05:58:10;;;;;;;8.10;5.30;;;;;;;16.44;55.17;98473.28;4952814;29;20059;-74
2021/10/06 06:00:35;;;;;;;8.02;5.60;;;;;;;16.47;55.04;98473.41;4952642;29;20112;-73
2021/10/06 06:03:01;;;;;;;8.30;5.00;;;;;;;16.50;55.33;98483.03;4953053;29;20031;-74
2021/10/06 06:05:26;;;;;;;7.97;5.47;;;;;;;16.50;55.22;98477.47;4951852;29;20023;-74
2021/10/06 06:07:52;;;;;;;9.68;5.55;;;;;;;16.53;55.48;98487.84;4952386;29;20023;-73
2021/10/06 06:10:17;;;;;;;10.07;5.93;;;;;;;16.56;55.82;98480.84;4952422;29;20391;-73
2021/10/06 06:12:43;;;;;;;13.75;7.82;;;;;;;16.60;55.82;98485.38;4935052;29;20042;-73
2021/10/06 06:15:09;;;;;;;13.43;8.43;;;;;;;16.63;55.94;98489.44;4951190;29;20035;-73
2021/10/06 06:17:37;;;;;;;15.52;8.52;;;;;;;16.66;56.04;98489.56;4951710;28;20031;-73
2021/10/06 06:20:09;;;;;;;20.20;14.00;;;;;;;16.70;56.00;98491.66;4952201;29;20142;-73
2021/10/06 06:22:35;;;;;;;23.35;15.38;;;;;;;16.73;56.14;98491.00;4950360;29;20184;-74
2021/10/06 06:25:02;;;;;;;23.52;11.25;;;;;;;16.74;55.75;98493.41;4934394;29;20027;-74
2021/10/06 06:27:28;;;;;;;16.00;9.32;;;;;;;16.76;56.07;98488.34;4935338;29;20443;-74
2021/10/06 06:29:53;;;;;;;9.73;6.95;;;;;;;16.78;56.64;98496.34;4952368;29;20119;-73
2021/10/06 06:32:18;;;;;;;11.38;6.40;;;;;;;16.79;55.98;98504.31;4951796;29;20106;-73
2021/10/06 06:34:44;;;;;;;12.63;6.82;;;;;;;16.80;55.99;98502.34;4951466;29;20020;-73
2021/10/06 06:37:09;;;;;;;9.00;6.28;;;;;;;16.81;56.45;98501.22;4951703;29;20053;-74
2021/10/06 06:39:35;;;;;;;9.65;6.30;;;;;;;16.82;56.25;98502.84;4952829;29;20468;-73
2021/10/06 06:42:00;;;;;;;13.77;6.70;;;;;;;16.77;56.58;98500.25;4953182;29;20431;-73
2021/10/06 06:44:26;;;;;;;17.08;7.28;;;;;;;16.75;56.64;98508.09;4935898;29;20484;-74
2021/10/06 06:46:51;;;;;;;14.68;7.15;;;;;;;16.72;56.92;98511.53;4952619;29;20034;-74
2021/10/06 06:49:17;;;;;;;13.70;6.93;;;;;;;16.70;56.45;98516.59;4953157;29;20027;-74
2021/10/06 06:51:42;;;;;;;12.05;6.90;;;;;;;16.65;56.55;98512.88;4953124;29;20388;-74
2021/10/06 06:54:08;;;;;;;11.88;6.38;;;;;;;16.64;57.02;98522.31;4952242;29;20027;-75
2021/10/06 06:56:38;;;;;;;12.23;6.82;;;;;;;16.63;57.28;98522.66;4950880;29;20480;-74
2021/10/06 06:59:06;;;;;;;12.38;6.82;;;;;;;16.59;56.92;98522.50;4932457;29;20109;-74
2021/10/06 07:01:31;;;;;;;12.13;7.18;;;;;;;16.59;57.77;98528.06;4948793;29;20475;-74
2021/10/06 07:03:57;;;;;;;11.48;6.50;;;;;;;16.56;57.21;98537.03;4952605;29;20058;-75
2021/10/06 07:06:22;;;;;;;10.52;6.85;;;;;;;16.48;57.60;98541.47;4951359;29;20042;-75
2021/10/06 07:08:48;;;;;;;11.60;6.72;;;;;;;16.40;57.53;98550.63;4934065;29;20411;-74
2021/10/06 07:11:14;;;;;;;14.05;9.38;;;;;;;16.32;57.63;98557.84;4934681;29;20023;-74
2021/10/06 07:13:40;;;;;;;12.45;8.23;;;;;;;16.25;58.10;98556.72;4949915;29;20027;-74
2021/10/06 07:16:05;;;;;;;16.20;8.90;;;;;;;16.22;58.44;98553.47;4951894;29;20035;-75
2021/10/06 07:18:31;;;;;;;14.02;8.95;;;;;;;16.24;58.77;98561.44;4944524;29;20038;-74
2021/10/06 07:20:57;;;;;;;11.63;7.78;;;;;;;16.25;58.70;98560.31;4950870;29;20098;-75
2021/10/06 07:23:23;;;;;;;14.88;7.72;;;;;;;16.30;58.84;98564.84;4950100;29;20504;-75
2021/10/06 07:25:48;;;;;;;9.65;6.57;;;;;;;16.35;58.90;98561.88;4949205;29;20062;-78
2021/10/06 07:28:14;;;;;;;12.25;6.60;;;;;;;16.41;59.19;98568.84;4949410;29;20107;-75
2021/10/06 07:30:39;;;;;;;12.13;7.32;;;;;;;16.41;59.55;98577.16;4953066;28;20035;-75
2021/10/06 07:33:05;;;;;;;14.40;7.85;;;;;;;16.44;59.55;98578.47;4953890;29;20430;-73
2021/10/06 07:35:31;;;;;;;12.27;7.97;;;;;;;16.47;59.68;98569.50;4936935;29;20027;-73
2021/10/06 07:37:57;;;;;;;18.15;10.48;;;;;;;16.43;59.45;98565.78;4936032;29;20044;-72
2021/10/06 07:40:23;;;;;;;10.32;8.18;;;;;;;16.29;59.45;98566.78;4954546;29;20038;-74
2021/10/06 07:42:51;;;;;;;12.20;7.97;;;;;;;16.21;60.17;98574.00;4952740;29;20384;-73
2021/10/06 07:45:17;;;;;;;11.88;6.80;;;;;;;16.16;59.84;98581.66;4952813;29;20387;-74
2021/10/06 07:47:42;;;;;;;12.13;7.40;;;;;;;16.03;59.65;98591.78;4932908;29;20027;-73
2021/10/06 07:50:08;;;;;;;12.38;8.13;;;;;;;15.99;59.84;98593.56;4954025;29;20054;-75
2021/10/06 07:52:33;;;;;;;14.23;7.75;;;;;;;15.97;60.36;98588.38;4955113;29;20023;-74
2021/10/06 07:54:59;;;;;;;12.68;8.30;;;;;;;15.92;60.53;98588.56;4954496;29;20497;-74
2021/10/06 07:57:24;;;;;;;114.43;31.55;;;;;;;15.89;60.77;98594.75;4936253;29;20038;-76
2021/10/06 07:59:50;;;;;;;136.07;36.47;;;;;;;15.90;60.63;98593.59;4954781;29;20103;-75
2021/10/06 08:02:15;;;;;;;179.00;42.25;;;;;;;15.87;61.21;98592.31;4954938;29;20062;-75
2021/10/06 08:04:40;;;;;;;221.25;48.58;;;;;;;15.87;60.91;98597.03;4954246;29;20150;-75
2021/10/06 08:07:06;;;;;;;86.53;21.95;;;;;;;15.88;61.63;98605.00;4953285;29;20031;-75
2021/10/06 08:09:32;;;;;;;40.72;13.93;;;;;;;15.84;61.29;98603.19;4952930;29;20103;-74
2021/10/06 08:11:57;;;;;;;23.15;10.25;;;;;;;15.82;60.94;98606.28;4954226;29;20495;-74
2021/10/06 08:14:23;;;;;;;47.95;18.95;;;;;;;15.78;61.64;98602.53;4953540;29;20024;-72
2021/10/06 08:16:49;;;;;;;58.33;23.65;;;;;;;15.80;61.74;98610.50;4952646;29;20489;-74
2021/10/06 08:19:15;;;;;;;19.27;11.13;;;;;;;15.81;61.71;98615.72;4953829;29;20036;-75
2021/10/06 08:21:41;;;;;;;16.13;10.50;;;;;;;15.81;61.90;98612.97;4953826;29;20027;-74
2021/10/06 08:24:07;;;;;;;17.17;12.23;;;;;;;15.80;61.85;98616.03;4953409;29;20404;-76
2021/10/06 08:26:32;;;;;;;13.85;10.15;;;;;;;15.77;62.28;98612.78;4952790;29;20031;-73
2021/10/06 08:28:58;;;;;;;13.00;8.55;;;;;;;15.75;62.66;98617.81;4949849;29;20034;-75
2021/10/06 08:31:23;;;;;;;12.57;9.18;;;;;;;15.73;62.39;98625.63;4954660;29;20035;-86
2021/10/06 08:33:50;;;;;;;13.98;9.65;;;;;;;15.69;62.84;98621.88;4953873;29;20023;-75
2021/10/06 08:36:15;;;;;;;12.77;9.90;;;;;;;15.65;62.34;98625.66;4954193;29;20031;-73
2021/10/06 08:38:41;;;;;;;13.23;10.07;;;;;;;15.65;63.16;98629.25;4952906;29;20102;-72
2021/10/06 08:41:09;;;;;;;13.48;10.10;;;;;;;15.64;63.41;98630.38;4952723;28;20023;-74
2021/10/06 08:43:40;;;;;;;13.77;10.20;;;;;;;15.62;63.97;98635.41;4953731;29;20028;-76
2021/10/06 08:46:06;;;;;;;16.92;10.57;;;;;;;15.56;63.27;98631.19;4935755;29;20040;-76
2021/10/06 08:48:31;;;;;;;14.45;10.60;;;;;;;15.56;63.40;98628.41;4954271;29;20031;-75
2021/10/06 08:50:57;;;;;;;14.45;11.18;;;;;;;15.57;63.41;98630.03;4954268;29;20423;-73
2021/10/06 08:53:22;;;;;;;13.98;10.27;;;;;;;15.54;64.64;98630.69;4936019;29;20035;-73
2021/10/06 08:55:49;;;;;;;14.55;11.10;;;;;;;15.50;64.86;98630.50;4953396;29;20039;-73
2021/10/06 08:58:14;;;;;;;14.20;10.63;;;;;;;15.44;64.29;98629.06;4952416;29;20031;-72
2021/10/06 09:00:56;;;;;;;15.80;10.40;;;;;;;15.39;64.08;98634.75;4936051;29;20042;-73
2021/10/06 09:03:35;;;;;;;15.65;10.32;;;;;;;15.39;64.58;98643.03;4952040;29;20579;-72
2021/10/06 09:06:09;;;;;;;16.60;11.95;;;;;;;15.36;64.98;98638.97;4951365;29;20029;-74
2021/10/06 09:08:37;;;;;;;22.85;12.60;;;;;;;15.33;64.90;98642.38;4934394;29;20044;-73
2021/10/06 09:11:06;;;;;;;48.33;18.70;;;;;;;15.31;64.93;98636.34;4951534;29;20031;-75
2021/10/06 09:13:37;;;;;;;21.33;12.57;;;;;;;15.25;64.56;98643.19;4934340;29;20027;-74
2021/10/06 09:16:03;;;;;;;19.88;11.52;;;;;;;15.24;64.85;98639.59;4951446;29;20143;-74
2021/10/06 09:18:30;;;;;;;15.30;10.07;;;;;;;15.24;65.14;98647.09;4952454;29;20476;-74
2021/10/06 09:20:59;;;;;;;26.25;15.20;;;;;;;15.23;64.82;98651.00;4952867;29;20744;-74
2021/10/06 09:23:26;;;;;;;62.78;32.78;;;;;;;15.24;65.38;98652.63;4953449;29;20031;-73
2021/10/06 09:25:53;;;;;;;92.00;47.47;;;;;;;15.28;65.68;98654.41;4952295;29;20038;-74
2021/10/06 09:28:21;;;;;;;114.70;56.03;;;;;;;15.34;65.14;98660.59;4952985;29;20058;-72
2021/10/06 09:30:50;;;;;;;97.28;49.90;;;;;;;15.36;65.46;98661.06;4952539;29;20023;-73
2021/10/06 09:33:15;;;;;;;65.20;33.08;;;;;;;15.37;65.82;98659.94;4952256;29;20034;-73
2021/10/06 09:35:41;;;;;;;38.00;20.00;;;;;;;15.38;66.85;98664.31;4952896;29;20033;-73
2021/10/06 09:38:07;;;;;;;35.70;17.27;;;;;;;15.36;65.81;98668.56;4952537;29;20050;-71
2021/10/06 09:40:33;;;;;;;30.10;15.73;;;;;;;15.36;65.96;98669.38;4952635;29;20035;-72
2021/10/06 09:43:01;;;;;;;28.27;15.00;;;;;;;15.33;65.94;98670.84;4953079;29;20019;-71
2021/10/06 09:45:29;;;;;;;26.98;14.75;;;;;;;15.32;66.64;98676.66;4952150;29;20030;-71
2021/10/06 09:48:14;;;;;;;24.20;14.20;;;;;;;15.30;66.16;98679.78;4952671;29;20035;-76
2021/10/06 09:50:43;;;;;;;26.13;14.48;;;;;;;15.29;66.15;98680.91;4953014;29;20387;-75
2021/10/06 09:53:15;;;;;;;26.58;14.60;;;;;;;15.28;66.41;98678.47;4952278;28;20031;-75
2021/10/06 09:55:44;;;;;;;26.50;14.25;;;;;;;15.26;66.45;98677.97;4949044;29;20034;-71
2021/10/06 09:58:10;;;;;;;25.70;14.35;;;;;;;15.24;66.50;98681.06;4952109;29;20042;-71
2021/10/06 10:00:38;;;;;;;23.40;14.10;;;;;;;15.24;67.04;98680.25;4952535;29;20027;-70
2021/10/06 10:03:05;;;;;;;23.63;14.70;;;;;;;15.24;66.51;98685.78;4951301;29;20023;-71
2021/10/06 10:05:32;;;;;;;23.27;14.57;;;;;;;15.24;67.03;98680.25;4952191;29;20113;-76
2021/10/06 10:07:58;;;;;;;24.73;14.55;;;;;;;15.25;67.55;98687.41;4951949;29;20023;-72
2021/10/06 10:10:23;;;;;;;24.15;15.30;;;;;;;15.18;66.95;98693.38;4947890;29;20503;-75
2021/10/06 10:12:49;;;;;;;33.55;17.58;;;;;;;15.17;67.26;98698.13;4947267;29;20034;-73
2021/10/06 10:15:19;;;;;;;27.25;16.92;;;;;;;15.17;67.03;98700.03;4948674;29;20170;-72
2021/10/06 10:17:46;;;;;;;26.10;16.40;;;;;;;15.14;67.91;98700.69;4935370;29;20074;-71
2021/10/06 10:20:16;;;;;;;26.02;15.70;;;;;;;15.09;67.55;98698.91;4951397;29;20042;-72
2021/10/06 10:22:45;;;;;;;21.23;15.30;;;;;;;15.09;67.54;98698.91;4951972;29;20492;-72
2021/10/06 10:25:25;;;;;;;28.95;17.85;;;;;;;15.07;67.19;98701.16;4950175;29;20039;-72
2021/10/06 10:28:11;;;;;;;29.95;19.40;;;;;;;15.07;67.78;98703.94;4948744;29;20110;-72
2021/10/06 10:30:39;;;;;;;26.77;17.55;;;;;;;15.06;67.67;98707.03;4949790;29;20485;-71
2021/10/06 10:33:06;;;;;;;25.42;17.02;;;;;;;15.06;68.50;98698.72;4945315;29;20058;-71
2021/10/06 10:35:43;;;;;;;25.67;15.73;;;;;;;15.03;68.07;98709.28;4945030;29;20034;-71
2021/10/06 10:38:13;;;;;;;24.23;15.57;;;;;;;15.02;68.16;98702.13;4948438;29;20034;-71
2021/10/06 10:40:48;;;;;;;27.58;15.02;;;;;;;15.07;67.83;98694.84;4949424;29;20592;-71
2021/10/06 10:43:16;;;;;;;28.63;18.48;;;;;;;15.06;68.09;98690.44;4946904;29;20479;-71
2021/10/06 10:46:01;;;;;;;31.17;20.65;;;;;;;15.08;68.35;98685.41;4948995;29;20122;-70
2021/10/06 10:48:32;;;;;;;31.52;20.88;;;;;;;15.09;68.29;98695.31;4950188;29;20054;-71
2021/10/06 10:50:57;;;;;;;32.50;19.75;;;;;;;15.08;68.17;98699.22;4948829;29;20027;-72
2021/10/06 10:53:51;;;;;;;29.92;20.20;;;;;;;15.08;68.24;98697.25;4951341;29;20042;-71
2021/10/06 10:56:42;;;;;;;29.52;17.83;;;;;;;15.10;68.73;98703.28;4950983;29;20114;-71
2021/10/06 10:59:14;;;;;;;29.55;18.30;;;;;;;15.08;68.33;98697.25;4949743;29;20027;-72
2021/10/06 11:01:43;;;;;;;23.40;15.10;;;;;;;15.05;68.29;98694.34;4951559;29;20035;-71
2021/10/06 11:04:19;;;;;;;22.13;14.07;;;;;;;15.05;68.71;98692.38;4951087;28;20266;-71
2021/10/06 11:06:47;;;;;;;21.67;14.88;;;;;;;15.08;68.57;98693.69;4953898;29;20023;-71
2021/10/06 11:09:31;;;;;;;25.33;16.67;;;;;;;15.07;68.35;98692.88;4951505;29;20454;-72
2021/10/06 11:12:05;;;;;;;28.77;15.73;;;;;;;15.06;68.69;98687.69;4955264;29;20035;-72
2021/10/06 11:14:37;;;;;;;27.42;16.10;;;;;;;15.10;68.83;98692.25;4952625;29;20085;-72
2021/10/06 11:17:16;;;;;;;22.67;14.07;;;;;;;15.14;68.68;98690.47;4946601;29;20399;-71
2021/10/06 11:19:47;;;;;;;26.98;14.80;;;;;;;15.17;68.75;98681.53;4953613;29;20043;-72
2021/10/06 11:22:22;;;;;;;23.20;12.30;;;;;;;15.24;68.90;98685.78;4952805;29;20047;-72